Time;durP1;ratioP1;P1;durP2;ratioP2;P2;SDS_P1;SDS_P2;PMS_P1;PMS_P2;Temp;Humidity;BMP_temperature;BMP_pressure;BME280_temperature;BME280_humidity;BME280_pressure;Samples;Min_cycle;Max_cycle;Signal;HPM_P1;HPM_P2
2023/09/21 00:01:06;;;;;;;7.10;2.40;;;18.40;99.90;;;;;;5075164;28;20209;-59
2023/09/21 00:03:36;;;;;;;4.25;2.20;;;18.50;99.90;;;;;;5075461;28;20182;-58
2023/09/21 00:06:03;;;;;;;3.35;2.05;;;18.40;99.90;;;;;;5075138;28;20630;-58
2023/09/21 00:08:33;;;;;;;5.45;2.80;;;18.40;99.90;;;;;;5074886;28;20189;-58
2023/09/21 00:11:00;;;;;;;3.80;2.33;;;18.40;99.90;;;;;;5075133;28;20170;-58
2023/09/21 00:13:31;;;;;;;5.18;3.08;;;18.40;99.90;;;;;;5075017;28;20514;-58
2023/09/21 00:15:59;;;;;;;9.18;4.75;;;18.40;99.90;;;;;;5074788;28;20733;-58
2023/09/21 00:18:25;;;;;;;3.05;2.10;;;18.40;99.90;;;;;;5075609;28;20177;-58
2023/09/21 00:20:56;;;;;;;2.95;2.17;;;18.40;99.90;;;;;;5074208;28;20537;-59
2023/09/21 00:23:24;;;;;;;3.67;1.98;;;18.40;99.90;;;;;;5075426;28;20170;-58
2023/09/21 00:25:51;;;;;;;3.75;2.65;;;18.40;99.90;;;;;;5074715;28;20170;-58
2023/09/21 00:28:19;;;;;;;9.38;2.78;;;18.40;99.90;;;;;;5074860;28;20253;-58
2023/09/21 00:30:45;;;;;;;4.45;3.42;;;18.40;99.90;;;;;;5074644;28;20173;-58
2023/09/21 00:33:11;;;;;;;3.25;2.30;;;18.30;99.90;;;;;;5074626;28;20162;-56
2023/09/21 00:35:39;;;;;;;4.07;2.00;;;18.30;99.90;;;;;;5074659;28;20200;-58
2023/09/21 00:38:10;;;;;;;4.45;2.05;;;18.30;99.90;;;;;;5073243;28;20162;-58
2023/09/21 00:40:38;;;;;;;2.42;1.92;;;18.30;99.90;;;;;;5074655;28;20162;-58
2023/09/21 00:43:06;;;;;;;3.13;1.92;;;18.30;99.90;;;;;;5074715;28;20162;-58
2023/09/21 00:45:34;;;;;;;3.85;2.70;;;18.30;99.90;;;;;;5074375;28;20267;-57
2023/09/21 00:48:01;;;;;;;3.25;2.30;;;18.30;99.90;;;;;;5074540;28;20566;-58
2023/09/21 00:50:27;;;;;;;2.95;2.00;;;18.30;99.90;;;;;;5074514;28;20174;-58
2023/09/21 00:52:54;;;;;;;2.00;1.80;;;18.30;99.90;;;;;;5074686;28;20627;-58
2023/09/21 00:55:23;;;;;;;4.35;2.35;;;18.30;99.90;;;;;;5074702;28;20213;-57
2023/09/21 00:57:50;;;;;;;2.75;1.92;;;18.40;99.90;;;;;;5074116;28;20158;-58
2023/09/21 01:00:16;;;;;;;2.38;1.90;;;18.30;99.90;;;;;;5074119;28;20166;-58
2023/09/21 01:02:43;;;;;;;4.43;2.58;;;18.30;99.90;;;;;;5074298;28;20182;-58
2023/09/21 01:05:17;;;;;;;3.85;2.20;;;18.30;99.90;;;;;;5073932;28;20206;-58
2023/09/21 01:07:45;;;;;;;5.28;1.90;;;18.30;99.90;;;;;;5073600;28;20264;-58
2023/09/21 01:10:13;;;;;;;2.47;2.10;;;18.30;99.90;;;;;;5073785;28;20162;-57
2023/09/21 01:12:44;;;;;;;2.90;1.80;;;18.30;99.90;;;;;;5074145;28;20234;-59
2023/09/21 01:15:10;;;;;;;2.72;2.20;;;18.30;99.90;;;;;;5073819;28;20215;-56
2023/09/21 01:17:39;;;;;;;2.75;2.08;;;18.30;99.90;;;;;;5073833;28;20670;-59
2023/09/21 01:23:18;;;;;;;4.90;1.70;;;18.20;99.90;;;;;;5072998;28;20173;-57
2023/09/21 01:25:50;;;;;;;3.67;2.00;;;18.20;99.90;;;;;;5064397;28;20189;-58
2023/09/21 01:28:22;;;;;;;2.83;1.92;;;18.20;99.90;;;;;;5073838;28;20178;-59
2023/09/21 01:30:49;;;;;;;2.08;1.88;;;18.10;99.90;;;;;;5073560;28;20713;-58
2023/09/21 01:33:15;;;;;;;2.38;1.98;;;18.20;99.90;;;;;;5073511;28;21308;-58
2023/09/21 01:35:46;;;;;;;2.60;1.90;;;18.20;99.90;;;;;;5073389;28;20197;-59
2023/09/21 01:38:13;;;;;;;2.28;1.75;;;18.20;99.90;;;;;;5073478;28;20197;-59
2023/09/21 01:40:39;;;;;;;4.68;1.80;;;18.20;99.90;;;;;;5073318;28;20481;-58
2023/09/21 01:43:10;;;;;;;3.38;2.10;;;18.20;99.90;;;;;;5073239;28;20158;-58
2023/09/21 01:45:39;;;;;;;3.40;2.20;;;18.20;99.90;;;;;;5073072;28;20671;-58
2023/09/21 01:48:08;;;;;;;4.03;1.92;;;18.20;99.90;;;;;;5073281;28;20208;-58
2023/09/21 01:50:40;;;;;;;1.92;1.73;;;18.20;99.90;;;;;;5073468;28;20261;-58
2023/09/21 01:53:12;;;;;;;3.90;1.95;;;18.20;99.90;;;;;;5073364;28;20170;-58
2023/09/21 01:55:39;;;;;;;3.60;1.98;;;18.30;99.90;;;;;;5073211;28;20210;-58
2023/09/21 01:58:06;;;;;;;2.72;1.80;;;18.30;99.90;;;;;;5073248;28;20166;-59
2023/09/21 02:00:34;;;;;;;3.38;1.90;;;18.30;99.90;;;;;;5072913;28;20200;-56
2023/09/21 02:03:03;;;;;;;2.33;1.60;;;18.30;99.90;;;;;;5072903;28;20620;-56
2023/09/21 02:05:29;;;;;;;4.05;1.95;;;18.20;99.90;;;;;;5072876;28;20170;-58
2023/09/21 02:07:55;;;;;;;4.20;1.85;;;;;;;;;;5073218;28;20170;-58
2023/09/21 02:10:21;;;;;;;3.75;1.75;;;18.20;99.90;;;;;;5072658;28;20716;-58
2023/09/21 02:12:57;;;;;;;2.08;1.80;;;18.20;99.90;;;;;;5072538;28;20698;-58
2023/09/21 02:15:26;;;;;;;2.00;1.80;;;18.30;99.90;;;;;;5073094;28;20204;-58
2023/09/21 02:17:56;;;;;;;3.50;1.90;;;18.20;99.90;;;;;;5072981;28;20166;-58
2023/09/21 02:20:28;;;;;;;3.17;2.22;;;18.20;99.90;;;;;;5073161;28;20177;-59
2023/09/21 02:23:02;;;;;;;2.10;1.65;;;18.20;99.90;;;;;;5072877;28;20166;-56
2023/09/21 02:25:32;;;;;;;5.05;1.90;;;18.20;99.90;;;;;;5072525;28;20226;-58
2023/09/21 02:27:58;;;;;;;3.22;2.05;;;18.20;99.90;;;;;;5072473;28;20178;-58
2023/09/21 02:30:24;;;;;;;2.92;1.85;;;18.20;99.90;;;;;;5072897;28;20166;-57
2023/09/21 02:32:52;;;;;;;3.47;2.00;;;18.20;99.90;;;;;;5072684;28;20162;-58
2023/09/21 02:35:24;;;;;;;2.08;1.88;;;18.20;99.90;;;;;;5072181;28;20225;-58
2023/09/21 02:37:51;;;;;;;4.22;1.80;;;18.20;99.90;;;;;;5072767;28;20558;-57
2023/09/21 02:40:19;;;;;;;4.10;1.80;;;18.10;99.90;;;;;;5072164;28;20162;-58
2023/09/21 02:42:53;;;;;;;2.92;2.22;;;18.10;99.90;;;;;;5072306;28;20219;-56
2023/09/21 02:45:25;;;;;;;2.83;1.83;;;18.00;99.90;;;;;;5071883;28;20170;-59
2023/09/21 02:48:00;;;;;;;2.83;2.10;;;18.00;99.90;;;;;;5072531;28;20199;-58
2023/09/21 02:50:27;;;;;;;3.50;1.98;;;18.00;99.90;;;;;;5071870;28;20182;-58
2023/09/21 02:52:54;;;;;;;3.67;2.05;;;18.10;99.90;;;;;;5072433;28;20624;-57
2023/09/21 02:55:21;;;;;;;2.22;1.75;;;18.00;99.90;;;;;;5072590;28;20206;-56
2023/09/21 02:57:54;;;;;;;3.05;2.05;;;18.10;99.90;;;;;;5071990;28;20708;-55
2023/09/21 03:00:21;;;;;;;3.95;2.05;;;18.10;99.90;;;;;;5072573;28;20184;-55
2023/09/21 03:02:49;;;;;;;3.67;2.22;;;18.10;99.90;;;;;;5072094;28;20198;-55
2023/09/21 03:05:16;;;;;;;2.72;1.80;;;18.10;99.90;;;;;;5072086;28;20785;-55
2023/09/21 03:07:43;;;;;;;3.13;1.88;;;18.20;99.90;;;;;;5071711;28;20220;-55
2023/09/21 03:10:10;;;;;;;2.92;1.90;;;18.20;99.90;;;;;;5072036;28;20198;-55
2023/09/21 03:12:39;;;;;;;2.70;1.98;;;18.20;99.90;;;;;;5072012;28;20672;-55
2023/09/21 03:15:18;;;;;;;3.17;2.20;;;18.20;99.90;;;;;;5070416;28;20170;-56
2023/09/21 03:17:44;;;;;;;2.47;1.92;;;18.20;99.90;;;;;;5071888;28;20646;-56
2023/09/21 03:23:11;;;;;;;3.10;2.00;;;18.20;99.90;;;;;;5071203;28;20197;-56
2023/09/21 03:25:40;;;;;;;2.58;2.00;;;18.40;99.90;;;;;;5071595;28;20631;-55
2023/09/21 03:28:13;;;;;;;4.88;2.15;;;18.50;99.90;;;;;;5071508;28;20589;-56
2023/09/21 03:30:43;;;;;;;3.70;2.17;;;18.50;99.90;;;;;;5071336;28;20526;-55
2023/09/21 03:33:09;;;;;;;3.33;2.20;;;18.50;99.90;;;;;;5071256;28;20199;-56
2023/09/21 03:35:37;;;;;;;3.90;2.10;;;18.50;99.90;;;;;;5071628;28;20572;-55
2023/09/21 03:38:06;;;;;;;2.28;1.98;;;18.50;99.90;;;;;;5071387;28;20619;-55
2023/09/21 03:40:34;;;;;;;2.67;2.05;;;18.50;99.90;;;;;;5070989;28;20631;-55
2023/09/21 03:43:00;;;;;;;5.05;2.38;;;18.50;99.90;;;;;;5071284;28;20200;-56
2023/09/21 03:45:26;;;;;;;4.90;2.08;;;18.50;99.90;;;;;;5071330;28;20221;-55
2023/09/21 03:47:53;;;;;;;2.80;2.00;;;18.50;99.90;;;;;;5071828;28;20161;-55
2023/09/21 03:50:19;;;;;;;3.75;2.15;;;18.50;99.90;;;;;;5071312;28;20169;-56
2023/09/21 03:52:47;;;;;;;3.58;2.10;;;18.50;99.90;;;;;;5071259;28;20162;-55
2023/09/21 03:55:15;;;;;;;2.97;2.20;;;18.50;99.90;;;;;;5071158;28;22124;-55
2023/09/21 03:57:47;;;;;;;4.82;2.10;;;18.50;99.90;;;;;;5071231;28;20647;-55
2023/09/21 04:00:30;;;;;;;2.97;2.03;;;18.50;99.90;;;;;;5071097;28;20653;-57
2023/09/21 04:03:00;;;;;;;6.13;2.30;;;18.40;99.90;;;;;;5071050;28;20169;-56
2023/09/21 04:05:27;;;;;;;3.00;2.20;;;18.40;99.90;;;;;;5069864;28;20174;-55
2023/09/21 04:07:53;;;;;;;4.93;2.25;;;18.40;99.90;;;;;;5071505;28;20154;-55
2023/09/21 04:10:20;;;;;;;3.47;1.83;;;18.40;99.90;;;;;;5071326;28;20257;-55
2023/09/21 04:12:46;;;;;;;4.35;2.00;;;18.80;99.90;;;;;;5071321;28;20170;-55
2023/09/21 04:15:11;;;;;;;3.50;2.00;;;18.40;99.90;;;;;;5070947;28;20170;-56
2023/09/21 04:17:39;;;;;;;1.92;1.73;;;18.40;99.90;;;;;;5071195;28;20174;-57
2023/09/21 04:20:10;;;;;;;3.10;2.25;;;18.40;99.90;;;;;;5070983;28;20162;-56
2023/09/21 04:22:38;;;;;;;3.22;1.98;;;18.40;99.90;;;;;;5071140;28;20166;-56
2023/09/21 04:25:08;;;;;;;5.55;2.00;;;18.40;99.90;;;;;;5070901;28;20556;-56
2023/09/21 04:27:38;;;;;;;3.85;1.92;;;18.40;99.90;;;;;;5070931;28;20162;-55
2023/09/21 04:30:06;;;;;;;2.42;2.00;;;18.40;99.90;;;;;;5071097;28;20170;-55
2023/09/21 04:32:32;;;;;;;4.38;2.45;;;18.30;99.90;;;;;;5070731;28;20643;-56
2023/09/21 04:34:58;;;;;;;3.50;2.08;;;18.30;99.90;;;;;;5070285;28;20245;-55
2023/09/21 04:37:23;;;;;;;3.47;2.28;;;18.30;99.90;;;;;;5070417;28;20224;-56
2023/09/21 04:39:50;;;;;;;3.90;1.90;;;18.30;99.90;;;;;;5069456;28;20158;-55
2023/09/21 04:42:16;;;;;;;4.97;2.33;;;18.30;99.90;;;;;;5068766;28;20677;-56
2023/09/21 04:44:41;;;;;;;4.15;1.83;;;18.30;99.90;;;;;;5072491;28;20252;-56
2023/09/21 04:47:07;;;;;;;4.53;2.33;;;;;;;;;;5073227;28;20274;-55
2023/09/21 04:49:37;;;;;;;4.45;2.10;;;18.20;99.90;;;;;;5073349;28;20169;-56
2023/09/21 04:52:03;;;;;;;4.45;2.00;;;18.20;99.90;;;;;;5074252;28;20338;-56
2023/09/21 04:54:29;;;;;;;5.47;2.20;;;18.20;99.90;;;;;;5074153;28;20166;-55
2023/09/21 04:56:54;;;;;;;2.05;1.85;;;18.10;99.90;;;;;;5073981;28;20204;-55
2023/09/21 04:59:21;;;;;;;2.17;1.80;;;;;;;;;;5073158;28;20168;-56
2023/09/21 05:01:49;;;;;;;6.63;2.65;;;18.20;99.90;;;;;;5073914;28;20544;-56
2023/09/21 05:04:14;;;;;;;4.38;2.03;;;18.20;99.90;;;;;;5073828;28;20240;-58
2023/09/21 05:06:40;;;;;;;4.03;2.95;;;18.10;99.90;;;;;;5074070;28;20229;-58
2023/09/21 05:09:06;;;;;;;4.57;1.90;;;18.20;99.90;;;;;;5073881;28;20166;-58
2023/09/21 05:11:38;;;;;;;6.55;2.55;;;18.10;99.90;;;;;;5074028;28;20606;-58
2023/09/21 05:14:05;;;;;;;3.58;2.65;;;18.20;99.90;;;;;;5073861;28;20154;-56
2023/09/21 05:16:32;;;;;;;2.97;2.30;;;18.20;99.90;;;;;;5073756;28;20314;-59
2023/09/21 05:18:57;;;;;;;3.05;2.40;;;18.20;99.90;;;;;;5074018;28;20209;-58
2023/09/21 05:21:23;;;;;;;2.40;1.92;;;18.20;99.90;;;;;;5074102;28;20190;-58
2023/09/21 05:23:49;;;;;;;3.55;2.42;;;18.20;99.90;;;;;;5073810;28;20162;-58
2023/09/21 05:26:15;;;;;;;2.60;2.20;;;;;;;;;;5073575;28;20189;-56
2023/09/21 05:28:41;;;;;;;3.13;2.50;;;18.20;99.90;;;;;;5073650;28;20170;-58
2023/09/21 05:31:09;;;;;;;2.67;2.08;;;18.20;99.90;;;;;;5073561;28;20170;-55
2023/09/21 05:33:38;;;;;;;5.68;2.80;;;18.20;99.90;;;;;;5073320;28;20623;-58
2023/09/21 05:36:06;;;;;;;7.68;1.90;;;18.20;99.90;;;;;;5073382;28;20670;-58
2023/09/21 05:38:33;;;;;;;6.10;2.33;;;18.20;99.90;;;;;;5073493;28;20174;-58
2023/09/21 05:41:02;;;;;;;4.20;2.60;;;18.30;99.90;;;;;;5073615;28;20177;-58
2023/09/21 05:43:29;;;;;;;4.70;2.22;;;18.30;99.90;;;;;;5073314;28;20670;-58
2023/09/21 05:45:55;;;;;;;7.72;2.67;;;;;;;;;;5073198;28;20225;-55
2023/09/21 05:48:20;;;;;;;4.28;2.28;;;18.30;99.90;;;;;;5073726;28;20692;-58
2023/09/21 05:50:46;;;;;;;4.63;2.10;;;18.30;99.90;;;;;;5073100;28;20193;-58
2023/09/21 05:53:12;;;;;;;5.43;2.42;;;18.40;99.90;;;;;;5073182;28;20222;-58
2023/09/21 05:55:37;;;;;;;5.15;2.20;;;18.40;99.90;;;;;;5072747;28;20202;-56
2023/09/21 05:58:04;;;;;;;4.20;2.28;;;18.40;99.90;;;;;;5072910;28;20173;-58
2023/09/21 06:00:33;;;;;;;4.70;2.33;;;18.50;99.90;;;;;;5073215;28;20256;-58
2023/09/21 06:03:02;;;;;;;3.22;2.20;;;18.50;99.90;;;;;;5073200;28;20197;-58
2023/09/21 06:05:29;;;;;;;3.60;2.50;;;18.50;99.90;;;;;;5072815;28;20639;-57
2023/09/21 06:07:55;;;;;;;3.53;2.13;;;18.60;99.90;;;;;;5073113;28;20530;-56
2023/09/21 06:10:22;;;;;;;4.82;2.45;;;18.60;99.90;;;;;;5073112;28;20173;-58
2023/09/21 06:12:48;;;;;;;6.32;2.20;;;18.70;99.90;;;;;;5072628;28;20169;-58
2023/09/21 06:15:15;;;;;;;3.72;2.28;;;18.80;99.90;;;;;;5072574;28;20162;-58
2023/09/21 06:17:41;;;;;;;4.38;2.38;;;;;;;;;;5072860;28;20549;-58
2023/09/21 06:20:07;;;;;;;4.05;2.28;;;18.80;99.90;;;;;;5072761;28;20581;-58
2023/09/21 06:22:32;;;;;;;4.03;2.40;;;18.90;99.90;;;;;;5072603;28;20174;-58
2023/09/21 06:24:59;;;;;;;4.47;2.35;;;18.90;99.90;;;;;;5072566;28;20162;-58
2023/09/21 06:27:25;;;;;;;5.43;2.10;;;;;;;;;;5072678;28;20522;-58
2023/09/21 06:29:51;;;;;;;4.38;2.25;;;19.00;99.90;;;;;;5072612;28;20530;-58
2023/09/21 06:32:18;;;;;;;5.93;2.47;;;19.00;99.90;;;;;;5072406;28;20464;-58
2023/09/21 06:34:45;;;;;;;3.60;2.28;;;19.00;99.90;;;;;;5072208;28;20525;-58
2023/09/21 06:37:11;;;;;;;4.20;2.42;;;19.10;99.90;;;;;;5072167;28;20586;-58
2023/09/21 06:39:37;;;;;;;4.10;2.33;;;19.10;99.90;;;;;;5072448;28;20248;-58
2023/09/21 06:42:03;;;;;;;5.00;2.45;;;19.10;99.90;;;;;;5072180;28;20646;-59
2023/09/21 06:44:29;;;;;;;7.97;2.63;;;;;;;;;;5072411;28;20166;-56
2023/09/21 06:46:56;;;;;;;4.53;2.20;;;19.30;99.90;;;;;;5071846;28;20346;-58
2023/09/21 06:49:22;;;;;;;4.13;2.25;;;19.40;99.90;;;;;;5072662;28;20202;-59
2023/09/21 06:51:49;;;;;;;3.97;2.28;;;;;;;;;;5071895;28;20189;-58
2023/09/21 06:54:15;;;;;;;3.42;2.40;;;19.60;99.90;;;;;;5072140;28;20176;-58
2023/09/21 06:56:40;;;;;;;3.72;2.00;;;19.70;99.90;;;;;;5071845;28;20202;-56
2023/09/21 06:59:06;;;;;;;5.22;2.17;;;19.70;99.90;;;;;;5071848;28;20610;-58
2023/09/21 07:01:34;;;;;;;4.53;2.25;;;19.70;99.90;;;;;;5071794;28;20169;-56
2023/09/21 07:04:00;;;;;;;3.47;2.00;;;19.80;99.90;;;;;;5071782;28;20504;-58
2023/09/21 07:06:25;;;;;;;3.15;2.03;;;19.90;99.90;;;;;;5071145;28;20639;-58
2023/09/21 07:08:52;;;;;;;3.47;2.30;;;20.00;99.90;;;;;;5072196;28;20220;-58
2023/09/21 07:11:21;;;;;;;5.38;2.30;;;20.00;99.90;;;;;;5071962;28;20261;-59
2023/09/21 07:13:47;;;;;;;7.65;2.30;;;20.20;99.90;;;;;;5071477;28;20170;-56
2023/09/21 07:16:13;;;;;;;4.53;2.20;;;20.40;99.90;;;;;;5071859;28;20236;-59
2023/09/21 07:18:39;;;;;;;3.30;2.28;;;20.60;99.90;;;;;;5071597;28;20174;-59
2023/09/21 07:21:05;;;;;;;6.70;2.30;;;20.70;99.90;;;;;;5071623;28;20280;-57
2023/09/21 07:23:31;;;;;;;3.90;2.45;;;20.70;99.90;;;;;;5071803;28;20249;-58
2023/09/21 07:25:57;;;;;;;2.47;2.28;;;20.80;99.90;;;;;;5071492;28;20280;-56
2023/09/21 07:28:24;;;;;;;3.83;2.40;;;20.80;99.90;;;;;;5071925;28;20615;-56
2023/09/21 07:30:53;;;;;;;6.80;2.50;;;20.60;99.90;;;;;;5071786;28;20223;-57
2023/09/21 07:33:22;;;;;;;7.13;2.60;;;20.60;99.90;;;;;;5071732;28;20178;-56
2023/09/21 07:35:48;;;;;;;6.75;2.28;;;20.60;99.90;;;;;;5071305;28;20196;-57
2023/09/21 07:38:14;;;;;;;6.53;2.35;;;20.60;99.90;;;;;;5071397;28;20750;-56
2023/09/21 07:40:40;;;;;;;2.35;2.15;;;20.50;99.90;;;;;;5071376;28;20166;-56
2023/09/21 07:43:06;;;;;;;4.30;2.38;;;20.60;99.90;;;;;;5071532;28;20178;-54
2023/09/21 07:45:32;;;;;;;5.78;2.38;;;20.60;99.90;;;;;;5071334;28;20224;-55
2023/09/21 07:47:58;;;;;;;5.85;2.40;;;20.50;99.90;;;;;;5071250;28;20623;-56
2023/09/21 07:50:27;;;;;;;3.88;2.30;;;20.70;99.90;;;;;;5071456;28;20276;-55
2023/09/21 07:52:56;;;;;;;4.82;2.35;;;20.80;99.90;;;;;;5071703;28;20169;-55
2023/09/21 07:55:22;;;;;;;4.70;2.20;;;20.90;99.90;;;;;;5071560;28;20499;-55
2023/09/21 07:57:48;;;;;;;5.57;2.35;;;21.10;99.90;;;;;;5071123;28;20192;-56
2023/09/21 08:00:15;;;;;;;5.97;2.72;;;21.00;99.90;;;;;;5071416;28;20181;-55
2023/09/21 08:02:41;;;;;;;5.97;2.53;;;21.00;99.90;;;;;;5071087;28;20177;-55
2023/09/21 08:05:09;;;;;;;3.13;2.28;;;21.00;99.90;;;;;;5069844;28;20176;-56
2023/09/21 08:07:36;;;;;;;3.58;2.42;;;20.90;99.90;;;;;;5071062;28;20174;-57
2023/09/21 08:10:03;;;;;;;4.22;2.30;;;20.90;99.90;;;;;;5071004;28;20170;-56
2023/09/21 08:12:30;;;;;;;4.88;2.20;;;21.00;99.90;;;;;;5071248;28;20223;-60
2023/09/21 08:14:57;;;;;;;7.25;2.60;;;21.00;99.90;;;;;;5071184;28;20584;-57
2023/09/21 08:17:23;;;;;;;4.18;2.40;;;21.00;99.90;;;;;;5072400;28;20302;-55
2023/09/21 08:19:49;;;;;;;3.85;2.42;;;21.20;99.90;;;;;;5075278;28;20201;-56
2023/09/21 08:22:15;;;;;;;2.90;2.38;;;21.30;99.90;;;;;;5074805;28;20187;-56
2023/09/21 08:24:41;;;;;;;5.32;2.33;;;21.40;99.90;;;;;;5074760;28;20628;-56
2023/09/21 08:27:08;;;;;;;3.35;2.30;;;21.70;99.90;;;;;;5075033;28;20174;-55
2023/09/21 08:29:33;;;;;;;5.45;2.35;;;21.80;99.90;;;;;;5074661;28;20169;-55
2023/09/21 08:31:59;;;;;;;3.72;2.30;;;21.90;99.90;;;;;;5074575;28;20166;-55
2023/09/21 08:34:25;;;;;;;5.68;2.65;;;21.80;99.90;;;;;;5074519;28;20566;-55
2023/09/21 08:36:51;;;;;;;4.00;2.70;;;21.80;99.90;;;;;;5074896;28;20206;-57
2023/09/21 08:39:17;;;;;;;4.43;2.55;;;22.10;99.90;;;;;;5074762;28;20257;-56
2023/09/21 08:41:50;;;;;;;5.63;2.58;;;22.10;99.90;;;;;;5074691;28;20583;-55
2023/09/21 08:44:17;;;;;;;4.90;2.22;;;22.00;99.90;;;;;;5074274;28;20220;-59
2023/09/21 08:46:50;;;;;;;3.47;2.28;;;22.00;99.90;;;;;;5074311;28;20220;-61
2023/09/21 08:49:21;;;;;;;5.22;2.40;;;21.90;99.90;;;;;;5074660;28;20174;-60
2023/09/21 08:51:48;;;;;;;4.55;2.50;;;22.00;99.90;;;;;;5074533;28;20527;-61
2023/09/21 08:54:16;;;;;;;4.13;2.55;;;21.90;99.90;;;;;;5074234;28;20192;-61
2023/09/21 08:56:43;;;;;;;4.28;2.45;;;21.90;99.90;;;;;;5074107;28;20243;-60
2023/09/21 08:59:09;;;;;;;3.25;2.25;;;22.00;99.90;;;;;;5074177;28;20154;-61
2023/09/21 09:01:36;;;;;;;5.18;2.30;;;21.80;99.90;;;;;;5074329;28;20582;-60
2023/09/21 09:04:02;;;;;;;3.45;2.30;;;21.80;99.90;;;;;;5074249;28;20170;-61
2023/09/21 09:06:29;;;;;;;4.18;2.45;;;21.80;99.90;;;;;;5074309;28;20264;-59
2023/09/21 09:08:55;;;;;;;5.25;2.60;;;;;;;;;;5072735;28;20169;-61
2023/09/21 09:11:40;;;;;;;3.50;2.22;;;21.60;99.90;;;;;;5074326;28;20199;-61
2023/09/21 09:14:17;;;;;;;4.32;2.40;;;21.60;99.90;;;;;;5073840;28;20158;-61
2023/09/21 09:16:44;;;;;;;5.57;2.67;;;21.60;99.90;;;;;;5073732;28;20220;-61
2023/09/21 09:19:11;;;;;;;6.00;2.63;;;21.70;99.90;;;;;;5074077;28;20516;-61
2023/09/21 09:21:37;;;;;;;6.80;2.30;;;;;;;;;;5073789;28;20215;-61
2023/09/21 09:24:04;;;;;;;4.07;2.38;;;21.80;99.90;;;;;;5073704;28;20170;-60
2023/09/21 09:26:33;;;;;;;2.40;2.20;;;21.90;99.90;;;;;;5073905;28;20178;-61
2023/09/21 09:29:05;;;;;;;4.25;2.40;;;21.90;99.90;;;;;;5073214;28;20257;-61
2023/09/21 09:31:32;;;;;;;2.95;2.20;;;21.90;99.90;;;;;;5073632;28;20249;-60
2023/09/21 09:33:59;;;;;;;7.25;2.65;;;22.00;99.90;;;;;;5073717;28;20170;-60
2023/09/21 09:36:25;;;;;;;3.53;2.50;;;22.00;99.90;;;;;;5073464;28;20686;-60
2023/09/21 09:38:52;;;;;;;5.85;2.70;;;22.00;99.90;;;;;;5073933;28;20205;-60
2023/09/21 09:41:18;;;;;;;5.80;2.42;;;;;;;;;;5073781;28;20681;-60
2023/09/21 09:43:52;;;;;;;3.58;2.42;;;21.90;99.90;;;;;;5073332;28;20528;-61
2023/09/21 09:46:20;;;;;;;2.47;1.98;;;21.80;99.90;;;;;;5073202;28;20217;-61
2023/09/21 09:48:48;;;;;;;3.53;2.35;;;21.70;99.90;;;;;;5073277;28;20158;-59
2023/09/21 09:51:24;;;;;;;8.57;2.00;;;21.80;99.90;;;;;;5073172;28;20158;-57
2023/09/21 09:53:52;;;;;;;4.88;2.80;;;21.90;99.90;;;;;;5073518;28;20631;-59
2023/09/21 09:56:19;;;;;;;3.13;2.33;;;21.90;99.90;;;;;;5072941;28;20206;-60
2023/09/21 09:58:44;;;;;;;8.68;2.25;;;21.90;99.90;;;;;;5071894;28;20166;-60
2023/09/21 10:01:12;;;;;;;3.67;2.28;;;22.00;99.90;;;;;;5073044;28;20573;-60
2023/09/21 10:03:40;;;;;;;3.08;2.05;;;21.90;99.90;;;;;;5072960;28;20166;-59
2023/09/21 10:06:08;;;;;;;4.30;2.35;;;22.00;99.90;;;;;;5072838;28;20622;-56
2023/09/21 10:08:36;;;;;;;3.65;2.15;;;22.10;99.90;;;;;;5072860;28;20170;-58
2023/09/21 10:11:03;;;;;;;4.07;2.55;;;22.00;99.90;;;;;;5072796;28;20162;-59
2023/09/21 10:13:30;;;;;;;5.50;3.17;;;21.80;99.90;;;;;;5073133;28;20182;-59
2023/09/21 10:16:04;;;;;;;5.07;2.50;;;21.80;99.90;;;;;;5071421;28;20228;-58
2023/09/21 10:18:37;;;;;;;2.65;2.15;;;21.70;99.90;;;;;;5072714;28;20660;-58
2023/09/21 10:21:31;;;;;;;4.20;2.30;;;21.80;99.90;;;;;;5072779;28;20257;-59
2023/09/21 10:24:18;;;;;;;5.45;2.33;;;21.80;99.90;;;;;;5072706;28;20562;-64
2023/09/21 10:26:46;;;;;;;5.10;2.40;;;21.80;99.90;;;;;;5072781;28;20165;-59
2023/09/21 10:29:12;;;;;;;4.20;2.30;;;21.80;99.90;;;;;;5072507;28;20170;-61
2023/09/21 10:31:42;;;;;;;5.80;2.30;;;21.90;99.90;;;;;;5072431;28;20162;-58
2023/09/21 10:34:09;;;;;;;5.07;2.28;;;21.90;99.90;;;;;;5072403;28;20197;-54
2023/09/21 10:36:40;;;;;;;4.60;2.25;;;21.90;99.90;;;;;;5072254;28;20233;-54
2023/09/21 10:39:05;;;;;;;3.40;2.15;;;21.90;99.90;;;;;;5072361;28;20162;-58
2023/09/21 10:41:32;;;;;;;4.97;2.10;;;21.90;99.90;;;;;;5071247;28;20173;-60
2023/09/21 10:44:00;;;;;;;2.88;1.90;;;21.90;99.90;;;;;;5072385;28;20215;-58
2023/09/21 10:46:26;;;;;;;3.17;2.03;;;21.90;99.90;;;;;;5072000;28;20229;-58
2023/09/21 10:49:13;;;;;;;3.28;2.17;;;21.90;99.90;;;;;;5072681;28;20252;-58
2023/09/21 10:51:39;;;;;;;4.85;2.22;;;21.90;99.90;;;;;;5072033;28;20166;-58
2023/09/21 10:54:06;;;;;;;3.28;2.42;;;21.90;99.90;;;;;;5071990;28;20162;-58
2023/09/21 10:56:36;;;;;;;4.35;2.00;;;21.80;99.90;;;;;;5070952;28;20209;-59
2023/09/21 10:59:02;;;;;;;6.10;2.38;;;21.80;99.90;;;;;;5071823;28;20208;-58
2023/09/21 11:01:27;;;;;;;8.70;2.50;;;21.90;99.90;;;;;;5072041;28;20178;-58
2023/09/21 11:03:53;;;;;;;3.53;2.42;;;21.90;99.90;;;;;;5070466;28;20174;-57
2023/09/21 11:06:20;;;;;;;3.20;2.03;;;21.90;99.90;;;;;;5072216;28;20166;-58
2023/09/21 11:08:47;;;;;;;5.95;2.80;;;21.90;99.90;;;;;;5071971;28;20166;-58
2023/09/21 11:11:13;;;;;;;5.40;2.40;;;21.90;99.90;;;;;;5072060;28;20205;-56
2023/09/21 11:13:42;;;;;;;3.03;2.30;;;21.80;99.90;;;;;;5071709;28;20252;-58
2023/09/21 11:16:14;;;;;;;6.38;2.08;;;21.90;99.90;;;;;;5071643;28;20540;-58
2023/09/21 11:18:40;;;;;;;3.80;2.20;;;21.90;99.90;;;;;;5071887;28;20174;-58
2023/09/21 11:21:08;;;;;;;4.03;2.00;;;21.80;99.90;;;;;;5071508;28;20169;-58
2023/09/21 11:23:35;;;;;;;3.22;2.40;;;21.80;99.90;;;;;;5071799;28;20198;-58
2023/09/21 11:26:00;;;;;;;3.38;2.15;;;21.80;99.90;;;;;;5070235;28;20543;-58
2023/09/21 11:28:27;;;;;;;5.17;2.40;;;21.90;99.90;;;;;;5080877;28;20413;-60
2023/09/21 11:30:56;;;;;;;6.00;2.50;;;21.90;99.90;;;;;;5090218;28;20169;-55
2023/09/21 11:33:22;;;;;;;9.73;2.42;;;21.90;99.90;;;;;;5090571;28;20169;-56
2023/09/21 11:35:48;;;;;;;4.88;2.28;;;22.00;99.90;;;;;;5090621;28;20479;-54
2023/09/21 11:38:16;;;;;;;6.32;2.22;;;22.00;99.90;;;;;;5089961;28;20254;-55
2023/09/21 11:40:42;;;;;;;4.07;2.28;;;22.00;99.90;;;;;;5090237;28;20535;-55
2023/09/21 11:43:20;;;;;;;5.25;2.20;;;22.00;99.90;;;;;;5089861;28;20173;-54
2023/09/21 11:45:49;;;;;;;2.63;2.13;;;21.90;99.90;;;;;;5089974;28;20307;-54
2023/09/21 11:48:15;;;;;;;4.22;2.40;;;21.90;99.90;;;;;;5090199;28;20173;-53
2023/09/21 11:50:45;;;;;;;47.55;29.13;;;;;;;;;;5090178;28;20370;-58
2023/09/21 11:53:12;;;;;;;9.32;6.00;;;21.90;99.90;;;;;;5092199;28;20160;-56
2023/09/21 11:55:37;;;;;;;20.90;12.40;;;22.10;99.90;;;;;;5094088;28;20201;-58
2023/09/21 11:58:14;;;;;;;8.05;5.07;;;22.10;99.90;;;;;;5094242;28;20529;-60
2023/09/21 12:00:44;;;;;;;44.63;21.83;;;22.10;99.90;;;;;;5094393;28;20176;-52
2023/09/21 12:03:17;;;;;;;65.22;34.15;;;22.10;99.90;;;;;;5093973;28;20162;-54
2023/09/21 12:05:43;;;;;;;28.70;15.32;;;22.10;99.90;;;;;;5093850;28;20253;-58
2023/09/21 12:08:19;;;;;;;4.63;2.38;;;22.10;99.90;;;;;;5093894;28;20173;-58
2023/09/21 12:10:45;;;;;;;5.22;3.38;;;;;;;;;;5090908;28;20664;-59
2023/09/21 12:13:11;;;;;;;13.13;6.53;;;22.00;99.90;;;;;;5093609;28;20248;-58
2023/09/21 12:15:38;;;;;;;42.35;26.83;;;22.00;99.90;;;;;;5093329;28;20198;-59
2023/09/21 12:18:04;;;;;;;24.80;13.85;;;22.00;99.90;;;;;;5094439;28;20630;-59
2023/09/21 12:20:30;;;;;;;9.43;4.15;;;22.00;99.90;;;;;;5095452;28;20165;-60
2023/09/21 12:22:56;;;;;;;20.13;9.55;;;22.00;99.90;;;;;;5095646;28;20176;-58
2023/09/21 12:25:24;;;;;;;12.75;7.80;;;;;;;;;;5094709;28;20173;-56
2023/09/21 12:27:50;;;;;;;19.80;11.45;;;;;;;;;;5095697;28;20579;-59
2023/09/21 12:30:17;;;;;;;22.35;12.43;;;21.90;99.90;;;;;;5095018;28;20621;-60
2023/09/21 12:32:43;;;;;;;7.70;4.07;;;21.90;99.90;;;;;;5094904;28;20165;-59
2023/09/21 12:35:10;;;;;;;17.80;7.90;;;21.80;99.90;;;;;;5094843;28;20166;-59
2023/09/21 12:37:37;;;;;;;13.93;7.78;;;21.80;99.90;;;;;;5094723;28;20209;-57
2023/09/21 12:40:11;;;;;;;7.75;4.55;;;21.80;99.90;;;;;;5094742;28;20200;-59
2023/09/21 12:42:39;;;;;;;18.70;10.45;;;21.70;99.90;;;;;;5094716;28;20257;-58
2023/09/21 12:45:07;;;;;;;28.45;20.27;;;21.90;99.90;;;;;;5094566;28;20168;-58
2023/09/21 12:47:33;;;;;;;49.60;27.10;;;;;;;;;;5094657;28;20197;-59
2023/09/21 12:50:00;;;;;;;13.90;7.60;;;21.90;99.90;;;;;;5094917;28;20157;-58
2023/09/21 12:52:26;;;;;;;7.30;4.72;;;21.90;99.90;;;;;;5094781;28;20246;-59
2023/09/21 12:54:53;;;;;;;13.80;11.00;;;;;;;;;;5094469;28;20158;-56
2023/09/21 12:57:19;;;;;;;5.15;2.67;;;;;;;;;;5094744;28;20701;-59
2023/09/21 12:59:45;;;;;;;6.13;2.58;;;21.90;99.90;;;;;;5094440;28;20170;-59
2023/09/21 13:02:12;;;;;;;6.40;2.28;;;22.00;99.90;;;;;;5094381;28;20267;-59